Championnat de Ligue MD - CL n°4 Tournehem (62) - B

Date : 27/03/2011
Distance : 4,500 km

Place Nom Licence Catégorie Club Temps min/km CN à J-60 Points Différence Nouveau CN
1 DESRUMAUX Marie 14227 D21 5906NO 0:40:26 8'59 5130 4942 -188 5146
2 FINAS Celine 8445 D21 5907NO 0:40:44 9'03 4998 4906 -92 5035
3 CHARLET Etienne 15796 H45 6208NO 0:46:58 10'26 3447 4255 +808 3569
4 ROBYN Laurence 10766 D40 5906NO 0:47:12 10'29 4226 4234 +8 4250
5 MERCIER Agnès 23079 D21 5907NO 0:48:10 10'42 3764 4149 +385 3989
6 DECARPIGNY Gwladys 6995 D21 5907NO 0:48:45 10'50 3393 4099 +706 4021
7 LOTERIE Laurine 7045 D18 5907NO 0:50:01 11'06 4624 3995 -629 4779
8 TANTART Delphine 19136 D20 5907NO 0:51:38 11'28 4281 3870 -411 4213
9 VADUREL Pauline 19241 D20 5907NO 0:53:17 11'50 4142 3750 -392 4110
10 FARDEL Camille 9426 D21 5907NO 0:54:21 12'04 3230 3677 +447 3645
11 KIRILOV Aurélie 20629 D21 5906NO 0:56:08 12'28 4097 3560 -537 4036
12 PRUVOST Veronique 13279 D21 6205NO 0:58:08 12'55 3012 3437 +425 3258
13 LANQUETIN Céline 18611 D20 5907NO 0:59:11 13'09 3570 3376 -194 3503
14 ROUX Catherine 13270 D40 6205NO 0:59:24 13'12 4015 3364 -651 4084
15 LE MOAL Damien 24459 H21 5909NO 1:00:58 13'32 3278 2639
16 CZERNIAK Sidonie 13272 D35 6205NO 1:01:39 13'42 2848 3241 +393 2864
17 LEROY Odile 7216 D50 5907NO 1:02:18 13'50 3275 3207 -68 3536
18 ASTOLFI Judith 21418 D40 5909NO 1:03:07 14'01 3150 3166 +16 3293
19 BOULANGER Isabelle 10639 D50 5907NO 1:03:09 14'02 3326 3164 -162 3414
20 VANDOMME Elodie 23560 D21 6208NO 1:04:06 14'14 2897 3117 +220 3227
21 VANOVERBERGHE Nathalie 22237 D40 6208NO 1:05:25 14'32 2739 3055 +316 2833
22 NOEL Annie 23019 D40 6207NO 1:10:12 15'36 0 2847 0
23 DEPERSIN Isabelle 17899 D35 5907NO 1:10:56 15'45 3076 2817 -259 3238
24 GOURLAIN Marguerite-marie 19155 D40 6205NO 1:12:56 16'12 2898 2740 -158 2968
25 PASSEPONT Audrey 22418 D21 6205NO 1:16:48 17'04 2283 2602 +319 2546
26 DURIEZ Caroline 24170 D21 6208NO 1:18:03 17'20 0 2560 2447
27 ROLIN Charlotte 23947 D35 6208NO 1:24:12 18'42 0 2373 2214
28 VILETTE Nathalie 23599 D40 6205NO 1:25:04 18'54 0 2349 2302
29 LAMINETTE M-Odile 17201 D50 5907NO 1:32:25 20'32 2682 2162 -520 2682
30 JUDAS Sylvaine 13635 D55 6208NO 1:36:41 21'29 2005 2067 +62 2389
31 PECQUEUR Sylvie 20425 D45 5906NO 1:38:13 21'49 2576 2035 -541 2576
32 TORZ-DRUON Magali 10081 D55 5906NO 1:40:45 22'23 2087 1983 -104 2270
33 LUDEWIG-JAMES Carol 15894 D70 5907NO 2:02:03 27'07 2160 1637 -523 2414
34 BOUCHEZ Marie-Pascale 24241 D40 6208NO 2:06:43 28'09 0 1577 1938
GHESQUIERE Ludovic 23831 H21 5909NO pm None 0 0 2598
MESSIOUEN Sabrina 24637 D21 5908NO pm None 0 0